sensor_id;sensor_type;location;lat;lon;timestamp;temperature;humidity
23568;DHT22;11962;50.838;4.430;2024-03-06T00:02:08;10.00;99.90
23568;DHT22;11962;50.838;4.430;2024-03-06T00:04:34;10.00;99.90
23568;DHT22;11962;50.838;4.430;2024-03-06T00:07:00;9.90;99.90
23568;DHT22;11962;50.838;4.430;2024-03-06T00:09:26;9.90;99.90
23568;DHT22;11962;50.838;4.430;2024-03-06T00:11:53;9.90;99.90
23568;DHT22;11962;50.838;4.430;2024-03-06T00:14:19;9.80;99.90
23568;DHT22;11962;50.838;4.430;2024-03-06T00:16:47;9.80;99.90
23568;DHT22;11962;50.838;4.430;2024-03-06T00:19:13;9.70;99.90
23568;DHT22;11962;50.838;4.430;2024-03-06T00:21:39;9.70;99.90
23568;DHT22;11962;50.838;4.430;2024-03-06T00:24:05;9.70;99.90
23568;DHT22;11962;50.838;4.430;2024-03-06T00:26:31;9.60;99.90
23568;DHT22;11962;50.838;4.430;2024-03-06T00:28:56;9.60;99.90
23568;DHT22;11962;50.838;4.430;2024-03-06T00:31:22;9.60;99.90
23568;DHT22;11962;50.838;4.430;2024-03-06T00:33:48;9.70;99.90
23568;DHT22;11962;50.838;4.430;2024-03-06T00:36:13;9.60;99.90
23568;DHT22;11962;50.838;4.430;2024-03-06T00:38:39;9.60;99.90
23568;DHT22;11962;50.838;4.430;2024-03-06T00:41:05;9.70;99.90
23568;DHT22;11962;50.838;4.430;2024-03-06T00:43:30;9.70;99.90
23568;DHT22;11962;50.838;4.430;2024-03-06T00:45:56;9.70;99.90
23568;DHT22;11962;50.838;4.430;2024-03-06T00:48:22;9.70;99.90
23568;DHT22;11962;50.838;4.430;2024-03-06T00:50:48;9.60;99.90
23568;DHT22;11962;50.838;4.430;2024-03-06T00:53:13;9.60;99.90
23568;DHT22;11962;50.838;4.430;2024-03-06T00:55:39;9.60;99.90
23568;DHT22;11962;50.838;4.430;2024-03-06T00:58:05;9.60;99.90
23568;DHT22;11962;50.838;4.430;2024-03-06T01:00:32;9.60;99.90
23568;DHT22;11962;50.838;4.430;2024-03-06T01:02:58;9.60;99.90
23568;DHT22;11962;50.838;4.430;2024-03-06T01:05:23;9.50;99.90
23568;DHT22;11962;50.838;4.430;2024-03-06T01:07:49;9.50;99.90
23568;DHT22;11962;50.838;4.430;2024-03-06T01:10:15;9.50;99.90
23568;DHT22;11962;50.838;4.430;2024-03-06T01:12:41;9.40;99.90
23568;DHT22;11962;50.838;4.430;2024-03-06T01:15:11;9.40;99.90
23568;DHT22;11962;50.838;4.430;2024-03-06T01:17:36;9.30;99.90
23568;DHT22;11962;50.838;4.430;2024-03-06T01:20:03;9.20;99.90
23568;DHT22;11962;50.838;4.430;2024-03-06T01:22:33;9.20;99.90
23568;DHT22;11962;50.838;4.430;2024-03-06T01:24:58;9.10;99.90
23568;DHT22;11962;50.838;4.430;2024-03-06T01:27:25;9.00;99.90
23568;DHT22;11962;50.838;4.430;2024-03-06T01:29:50;9.00;99.90
23568;DHT22;11962;50.838;4.430;2024-03-06T01:32:16;8.90;99.90
23568;DHT22;11962;50.838;4.430;2024-03-06T01:34:42;8.80;99.90
23568;DHT22;11962;50.838;4.430;2024-03-06T01:37:07;8.80;99.90
23568;DHT22;11962;50.838;4.430;2024-03-06T01:39:33;8.80;99.90
23568;DHT22;11962;50.838;4.430;2024-03-06T01:42:01;8.70;99.90
23568;DHT22;11962;50.838;4.430;2024-03-06T01:44:27;8.60;99.90
23568;DHT22;11962;50.838;4.430;2024-03-06T01:46:53;8.60;99.90
23568;DHT22;11962;50.838;4.430;2024-03-06T01:49:19;8.50;99.90
23568;DHT22;11962;50.838;4.430;2024-03-06T01:51:50;8.50;99.90
23568;DHT22;11962;50.838;4.430;2024-03-06T01:54:17;8.50;99.90
23568;DHT22;11962;50.838;4.430;2024-03-06T01:56:45;8.40;99.90
23568;DHT22;11962;50.838;4.430;2024-03-06T01:59:11;8.40;99.90
23568;DHT22;11962;50.838;4.430;2024-03-06T02:01:37;8.40;99.90
23568;DHT22;11962;50.838;4.430;2024-03-06T02:04:04;8.30;99.90
23568;DHT22;11962;50.838;4.430;2024-03-06T02:06:30;8.30;99.90
23568;DHT22;11962;50.838;4.430;2024-03-06T02:08:56;8.20;99.90
23568;DHT22;11962;50.838;4.430;2024-03-06T02:11:22;8.20;99.90
23568;DHT22;11962;50.838;4.430;2024-03-06T02:13:49;8.20;99.90
23568;DHT22;11962;50.838;4.430;2024-03-06T02:16:15;8.10;99.90
23568;DHT22;11962;50.838;4.430;2024-03-06T02:18:51;8.10;99.90
23568;DHT22;11962;50.838;4.430;2024-03-06T02:21:19;8.10;99.90
23568;DHT22;11962;50.838;4.430;2024-03-06T02:23:44;8.00;99.90
23568;DHT22;11962;50.838;4.430;2024-03-06T02:26:10;7.90;99.90
23568;DHT22;11962;50.838;4.430;2024-03-06T02:28:36;7.90;99.90
23568;DHT22;11962;50.838;4.430;2024-03-06T02:31:02;7.90;99.90
23568;DHT22;11962;50.838;4.430;2024-03-06T02:33:28;7.90;99.90
23568;DHT22;11962;50.838;4.430;2024-03-06T02:35:53;7.80;99.90
23568;DHT22;11962;50.838;4.430;2024-03-06T02:38:19;7.80;99.90
23568;DHT22;11962;50.838;4.430;2024-03-06T02:40:45;7.80;99.90
23568;DHT22;11962;50.838;4.430;2024-03-06T02:43:11;7.80;99.90
23568;DHT22;11962;50.838;4.430;2024-03-06T02:45:38;7.70;99.90
23568;DHT22;11962;50.838;4.430;2024-03-06T02:48:04;7.70;99.90
23568;DHT22;11962;50.838;4.430;2024-03-06T02:50:30;7.70;99.90
23568;DHT22;11962;50.838;4.430;2024-03-06T02:52:56;7.70;99.90
23568;DHT22;11962;50.838;4.430;2024-03-06T02:55:22;7.60;99.90
23568;DHT22;11962;50.838;4.430;2024-03-06T02:57:49;7.60;99.90
23568;DHT22;11962;50.838;4.430;2024-03-06T03:00:15;7.60;99.90
23568;DHT22;11962;50.838;4.430;2024-03-06T03:02:41;7.50;99.90
23568;DHT22;11962;50.838;4.430;2024-03-06T03:05:08;7.50;99.90
23568;DHT22;11962;50.838;4.430;2024-03-06T03:07:34;7.50;99.90
23568;DHT22;11962;50.838;4.430;2024-03-06T03:09:59;7.50;99.90
23568;DHT22;11962;50.838;4.430;2024-03-06T03:12:25;7.40;99.90
23568;DHT22;11962;50.838;4.430;2024-03-06T03:14:51;7.40;99.90
23568;DHT22;11962;50.838;4.430;2024-03-06T03:17:18;7.40;99.90
23568;DHT22;11962;50.838;4.430;2024-03-06T03:19:45;7.40;99.90
23568;DHT22;11962;50.838;4.430;2024-03-06T03:22:10;7.40;99.90
23568;DHT22;11962;50.838;4.430;2024-03-06T03:24:36;7.30;99.90
23568;DHT22;11962;50.838;4.430;2024-03-06T03:27:06;7.30;99.90
23568;DHT22;11962;50.838;4.430;2024-03-06T03:29:32;7.30;99.90
23568;DHT22;11962;50.838;4.430;2024-03-06T03:31:58;7.30;99.90
23568;DHT22;11962;50.838;4.430;2024-03-06T03:34:24;7.20;99.90
23568;DHT22;11962;50.838;4.430;2024-03-06T03:36:49;7.20;99.90
23568;DHT22;11962;50.838;4.430;2024-03-06T03:39:15;7.20;99.90
23568;DHT22;11962;50.838;4.430;2024-03-06T03:41:46;7.10;99.90
23568;DHT22;11962;50.838;4.430;2024-03-06T03:44:17;7.20;99.90
23568;DHT22;11962;50.838;4.430;2024-03-06T03:46:43;7.10;99.90
23568;DHT22;11962;50.838;4.430;2024-03-06T03:49:09;7.10;99.90
23568;DHT22;11962;50.838;4.430;2024-03-06T03:51:36;7.10;99.90
23568;DHT22;11962;50.838;4.430;2024-03-06T03:54:02;7.10;99.90
23568;DHT22;11962;50.838;4.430;2024-03-06T03:56:28;7.10;99.90
23568;DHT22;11962;50.838;4.430;2024-03-06T03:58:54;7.10;99.90
23568;DHT22;11962;50.838;4.430;2024-03-06T04:01:20;7.10;99.90
23568;DHT22;11962;50.838;4.430;2024-03-06T04:03:45;7.00;99.90
23568;DHT22;11962;50.838;4.430;2024-03-06T04:06:11;7.00;99.90
23568;DHT22;11962;50.838;4.430;2024-03-06T04:08:37;7.00;99.90
23568;DHT22;11962;50.838;4.430;2024-03-06T04:11:06;6.90;99.90
23568;DHT22;11962;50.838;4.430;2024-03-06T04:13:36;6.90;99.90
23568;DHT22;11962;50.838;4.430;2024-03-06T04:16:02;6.80;99.90
23568;DHT22;11962;50.838;4.430;2024-03-06T04:18:29;6.80;99.90
23568;DHT22;11962;50.838;4.430;2024-03-06T04:20:55;6.80;99.90
23568;DHT22;11962;50.838;4.430;2024-03-06T04:23:20;6.70;99.90
23568;DHT22;11962;50.838;4.430;2024-03-06T04:25:46;6.70;99.90
23568;DHT22;11962;50.838;4.430;2024-03-06T04:28:11;6.70;99.90
23568;DHT22;11962;50.838;4.430;2024-03-06T04:30:38;6.70;99.90
23568;DHT22;11962;50.838;4.430;2024-03-06T04:33:04;6.60;99.90
23568;DHT22;11962;50.838;4.430;2024-03-06T04:35:30;6.60;99.90
23568;DHT22;11962;50.838;4.430;2024-03-06T04:37:55;6.60;99.90
23568;DHT22;11962;50.838;4.430;2024-03-06T04:40:21;6.60;99.90
23568;DHT22;11962;50.838;4.430;2024-03-06T04:42:48;6.50;99.90
23568;DHT22;11962;50.838;4.430;2024-03-06T04:45:17;6.60;99.90
23568;DHT22;11962;50.838;4.430;2024-03-06T04:47:43;6.50;99.90
23568;DHT22;11962;50.838;4.430;2024-03-06T04:50:13;6.50;99.90
23568;DHT22;11962;50.838;4.430;2024-03-06T04:52:40;6.50;99.90
23568;DHT22;11962;50.838;4.430;2024-03-06T04:55:07;6.40;99.90
23568;DHT22;11962;50.838;4.430;2024-03-06T04:57:34;6.40;99.90
23568;DHT22;11962;50.838;4.430;2024-03-06T04:59:59;6.40;99.90
23568;DHT22;11962;50.838;4.430;2024-03-06T05:02:27;6.40;99.90
23568;DHT22;11962;50.838;4.430;2024-03-06T05:04:53;6.40;99.90
23568;DHT22;11962;50.838;4.430;2024-03-06T05:07:19;6.30;99.90
23568;DHT22;11962;50.838;4.430;2024-03-06T05:09:44;6.30;99.90
23568;DHT22;11962;50.838;4.430;2024-03-06T05:12:10;6.30;99.90
23568;DHT22;11962;50.838;4.430;2024-03-06T05:14:36;6.30;99.90
23568;DHT22;11962;50.838;4.430;2024-03-06T05:17:02;6.30;99.90
23568;DHT22;11962;50.838;4.430;2024-03-06T05:19:28;6.30;99.90
23568;DHT22;11962;50.838;4.430;2024-03-06T05:22:00;6.20;99.90
23568;DHT22;11962;50.838;4.430;2024-03-06T05:24:26;6.20;99.90
23568;DHT22;11962;50.838;4.430;2024-03-06T05:26:51;6.20;99.90
23568;DHT22;11962;50.838;4.430;2024-03-06T05:29:17;6.20;99.90
23568;DHT22;11962;50.838;4.430;2024-03-06T05:31:43;6.20;99.90
23568;DHT22;11962;50.838;4.430;2024-03-06T05:34:08;6.20;99.90
23568;DHT22;11962;50.838;4.430;2024-03-06T05:36:34;6.20;99.90
23568;DHT22;11962;50.838;4.430;2024-03-06T05:39:00;6.20;99.90
23568;DHT22;11962;50.838;4.430;2024-03-06T05:41:25;6.20;99.90
23568;DHT22;11962;50.838;4.430;2024-03-06T05:43:51;6.20;99.90
23568;DHT22;11962;50.838;4.430;2024-03-06T05:46:16;6.20;99.90
23568;DHT22;11962;50.838;4.430;2024-03-06T05:48:42;6.20;99.90
23568;DHT22;11962;50.838;4.430;2024-03-06T05:51:08;6.20;99.90
23568;DHT22;11962;50.838;4.430;2024-03-06T05:53:37;6.20;99.90
23568;DHT22;11962;50.838;4.430;2024-03-06T05:56:05;6.20;99.90
23568;DHT22;11962;50.838;4.430;2024-03-06T05:58:31;6.10;99.90
23568;DHT22;11962;50.838;4.430;2024-03-06T06:00:57;6.10;99.90
23568;DHT22;11962;50.838;4.430;2024-03-06T06:03:23;6.10;99.90
23568;DHT22;11962;50.838;4.430;2024-03-06T06:05:48;6.10;99.90
23568;DHT22;11962;50.838;4.430;2024-03-06T06:08:14;6.10;99.90
23568;DHT22;11962;50.838;4.430;2024-03-06T06:10:40;6.10;99.90
23568;DHT22;11962;50.838;4.430;2024-03-06T06:13:05;6.20;99.90
23568;DHT22;11962;50.838;4.430;2024-03-06T06:15:31;6.10;99.90
23568;DHT22;11962;50.838;4.430;2024-03-06T06:17:57;6.20;99.90
23568;DHT22;11962;50.838;4.430;2024-03-06T06:20:22;6.20;99.90
23568;DHT22;11962;50.838;4.430;2024-03-06T06:22:49;6.20;99.90
23568;DHT22;11962;50.838;4.430;2024-03-06T06:25:15;6.20;99.90
23568;DHT22;11962;50.838;4.430;2024-03-06T06:27:41;6.20;99.90
23568;DHT22;11962;50.838;4.430;2024-03-06T06:30:07;6.20;99.90
23568;DHT22;11962;50.838;4.430;2024-03-06T06:32:40;6.30;99.90
23568;DHT22;11962;50.838;4.430;2024-03-06T06:35:06;6.20;99.90
23568;DHT22;11962;50.838;4.430;2024-03-06T06:37:32;6.30;99.90
23568;DHT22;11962;50.838;4.430;2024-03-06T06:39:57;6.30;99.90
23568;DHT22;11962;50.838;4.430;2024-03-06T06:42:24;6.30;99.90
23568;DHT22;11962;50.838;4.430;2024-03-06T06:44:50;6.30;99.90
23568;DHT22;11962;50.838;4.430;2024-03-06T06:47:17;6.40;99.90
23568;DHT22;11962;50.838;4.430;2024-03-06T06:49:42;6.40;99.90
23568;DHT22;11962;50.838;4.430;2024-03-06T06:52:08;6.40;99.90
23568;DHT22;11962;50.838;4.430;2024-03-06T06:54:34;6.40;99.90
23568;DHT22;11962;50.838;4.430;2024-03-06T06:56:59;6.50;99.90
23568;DHT22;11962;50.838;4.430;2024-03-06T06:59:25;6.50;99.90
23568;DHT22;11962;50.838;4.430;2024-03-06T07:01:50;6.60;99.90
23568;DHT22;11962;50.838;4.430;2024-03-06T07:04:16;6.70;99.90
23568;DHT22;11962;50.838;4.430;2024-03-06T07:06:45;6.80;99.90
23568;DHT22;11962;50.838;4.430;2024-03-06T07:09:12;6.80;99.90
23568;DHT22;11962;50.838;4.430;2024-03-06T07:11:39;6.90;99.90
23568;DHT22;11962;50.838;4.430;2024-03-06T07:14:05;7.00;99.90
23568;DHT22;11962;50.838;4.430;2024-03-06T07:16:30;7.00;99.90
23568;DHT22;11962;50.838;4.430;2024-03-06T07:18:56;7.10;99.90
23568;DHT22;11962;50.838;4.430;2024-03-06T07:21:22;7.20;99.90
23568;DHT22;11962;50.838;4.430;2024-03-06T07:23:48;7.30;99.90
23568;DHT22;11962;50.838;4.430;2024-03-06T07:26:13;7.40;99.90
23568;DHT22;11962;50.838;4.430;2024-03-06T07:28:39;7.50;99.90
23568;DHT22;11962;50.838;4.430;2024-03-06T07:31:04;7.60;99.90
23568;DHT22;11962;50.838;4.430;2024-03-06T07:33:31;7.60;99.90
23568;DHT22;11962;50.838;4.430;2024-03-06T07:35:59;7.60;99.90
23568;DHT22;11962;50.838;4.430;2024-03-06T07:38:25;7.70;99.90
23568;DHT22;11962;50.838;4.430;2024-03-06T07:40:50;7.70;99.90
23568;DHT22;11962;50.838;4.430;2024-03-06T07:43:16;7.70;99.90
23568;DHT22;11962;50.838;4.430;2024-03-06T07:45:42;7.80;99.90
23568;DHT22;11962;50.838;4.430;2024-03-06T07:48:07;7.80;99.90
23568;DHT22;11962;50.838;4.430;2024-03-06T07:50:35;7.90;99.90
23568;DHT22;11962;50.838;4.430;2024-03-06T07:53:00;7.90;99.90
23568;DHT22;11962;50.838;4.430;2024-03-06T07:55:27;8.00;99.90
23568;DHT22;11962;50.838;4.430;2024-03-06T07:57:53;8.00;99.90
23568;DHT22;11962;50.838;4.430;2024-03-06T08:00:19;8.10;99.90
23568;DHT22;11962;50.838;4.430;2024-03-06T08:02:45;8.20;99.90
23568;DHT22;11962;50.838;4.430;2024-03-06T08:05:16;8.30;99.90
23568;DHT22;11962;50.838;4.430;2024-03-06T08:07:42;8.40;99.90
23568;DHT22;11962;50.838;4.430;2024-03-06T08:10:11;8.50;99.90
23568;DHT22;11962;50.838;4.430;2024-03-06T08:12:41;8.50;99.90
23568;DHT22;11962;50.838;4.430;2024-03-06T08:21:04;8.70;99.90
23568;DHT22;11962;50.838;4.430;2024-03-06T08:23:31;8.80;99.90
23568;DHT22;11962;50.838;4.430;2024-03-06T08:25:57;8.90;99.90
23568;DHT22;11962;50.838;4.430;2024-03-06T08:28:23;9.50;99.90
23568;DHT22;11962;50.838;4.430;2024-03-06T08:30:48;11.00;99.90
23568;DHT22;11962;50.838;4.430;2024-03-06T08:33:14;14.10;99.90
23568;DHT22;11962;50.838;4.430;2024-03-06T08:35:41;17.20;99.90
23568;DHT22;11962;50.838;4.430;2024-03-06T08:38:07;20.20;99.90
23568;DHT22;11962;50.838;4.430;2024-03-06T08:40:32;22.60;99.90
23568;DHT22;11962;50.838;4.430;2024-03-06T08:42:59;24.50;95.70
23568;DHT22;11962;50.838;4.430;2024-03-06T08:45:24;26.30;90.50
23568;DHT22;11962;50.838;4.430;2024-03-06T08:47:50;27.90;81.80
23568;DHT22;11962;50.838;4.430;2024-03-06T08:50:17;29.10;72.00
23568;DHT22;11962;50.838;4.430;2024-03-06T08:52:43;29.70;66.40
23568;DHT22;11962;50.838;4.430;2024-03-06T08:55:09;30.60;62.70
23568;DHT22;11962;50.838;4.430;2024-03-06T08:57:36;31.50;58.80
23568;DHT22;11962;50.838;4.430;2024-03-06T09:00:03;32.20;56.20
23568;DHT22;11962;50.838;4.430;2024-03-06T09:02:28;32.60;54.20
23568;DHT22;11962;50.838;4.430;2024-03-06T09:04:55;33.00;53.20
23568;DHT22;11962;50.838;4.430;2024-03-06T09:07:21;33.80;51.80
23568;DHT22;11962;50.838;4.430;2024-03-06T09:09:50;34.40;50.50
23568;DHT22;11962;50.838;4.430;2024-03-06T09:12:19;35.00;48.90
23568;DHT22;11962;50.838;4.430;2024-03-06T09:14:44;35.60;47.40
23568;DHT22;11962;50.838;4.430;2024-03-06T09:17:11;36.00;47.00
23568;DHT22;11962;50.838;4.430;2024-03-06T09:19:40;36.50;45.70
23568;DHT22;11962;50.838;4.430;2024-03-06T09:22:06;36.90;44.50
23568;DHT22;11962;50.838;4.430;2024-03-06T09:24:33;37.30;43.50
23568;DHT22;11962;50.838;4.430;2024-03-06T09:27:01;37.70;42.70
23568;DHT22;11962;50.838;4.430;2024-03-06T09:29:26;37.90;41.70
23568;DHT22;11962;50.838;4.430;2024-03-06T09:31:52;37.90;41.20
23568;DHT22;11962;50.838;4.430;2024-03-06T09:34:18;38.30;40.90
23568;DHT22;11962;50.838;4.430;2024-03-06T09:36:49;38.50;40.50
23568;DHT22;11962;50.838;4.430;2024-03-06T09:39:18;38.60;39.60
23568;DHT22;11962;50.838;4.430;2024-03-06T09:41:51;38.30;39.70
23568;DHT22;11962;50.838;4.430;2024-03-06T09:44:17;38.00;39.70
23568;DHT22;11962;50.838;4.430;2024-03-06T09:46:47;38.20;39.60
23568;DHT22;11962;50.838;4.430;2024-03-06T10:12:29;36.50;39.00
23568;DHT22;11962;50.838;4.430;2024-03-06T10:14:55;36.70;38.60
23568;DHT22;11962;50.838;4.430;2024-03-06T10:17:22;35.20;39.20
23568;DHT22;11962;50.838;4.430;2024-03-06T10:19:48;33.80;41.00
23568;DHT22;11962;50.838;4.430;2024-03-06T10:22:21;32.10;42.80
23568;DHT22;11962;50.838;4.430;2024-03-06T10:24:49;32.30;42.80
23568;DHT22;11962;50.838;4.430;2024-03-06T10:27:16;31.60;43.40
23568;DHT22;11962;50.838;4.430;2024-03-06T10:29:42;31.20;44.00
23568;DHT22;11962;50.838;4.430;2024-03-06T10:32:08;32.30;43.80
23568;DHT22;11962;50.838;4.430;2024-03-06T10:34:36;32.70;42.70
23568;DHT22;11962;50.838;4.430;2024-03-06T10:37:03;31.40;43.40
23568;DHT22;11962;50.838;4.430;2024-03-06T10:39:36;29.60;45.20
23568;DHT22;11962;50.838;4.430;2024-03-06T10:42:07;27.90;47.50
23568;DHT22;11962;50.838;4.430;2024-03-06T10:44:34;26.40;50.50
23568;DHT22;11962;50.838;4.430;2024-03-06T10:47:02;25.30;51.90
23568;DHT22;11962;50.838;4.430;2024-03-06T10:49:29;24.20;54.00
23568;DHT22;11962;50.838;4.430;2024-03-06T10:52:02;23.30;55.60
23568;DHT22;11962;50.838;4.430;2024-03-06T10:54:32;22.60;57.20
23568;DHT22;11962;50.838;4.430;2024-03-06T10:57:01;22.20;58.60
23568;DHT22;11962;50.838;4.430;2024-03-06T10:59:29;21.80;59.40
23568;DHT22;11962;50.838;4.430;2024-03-06T11:01:55;21.60;60.00
23568;DHT22;11962;50.838;4.430;2024-03-06T11:04:26;21.30;60.50
23568;DHT22;11962;50.838;4.430;2024-03-06T11:06:57;21.00;61.20
23568;DHT22;11962;50.838;4.430;2024-03-06T11:09:25;20.60;62.00
23568;DHT22;11962;50.838;4.430;2024-03-06T11:11:52;20.40;63.20
23568;DHT22;11962;50.838;4.430;2024-03-06T11:14:20;20.20;63.70
23568;DHT22;11962;50.838;4.430;2024-03-06T11:19:21;19.70;65.50
23568;DHT22;11962;50.838;4.430;2024-03-06T11:21:47;19.50;66.20
23568;DHT22;11962;50.838;4.430;2024-03-06T11:24:23;19.30;67.50
23568;DHT22;11962;50.838;4.430;2024-03-06T11:27:11;19.20;67.40
23568;DHT22;11962;50.838;4.430;2024-03-06T11:30:32;19.00;67.50
23568;DHT22;11962;50.838;4.430;2024-03-06T11:32:58;18.90;67.50
23568;DHT22;11962;50.838;4.430;2024-03-06T11:35:24;18.70;67.80
23568;DHT22;11962;50.838;4.430;2024-03-06T11:37:50;19.00;68.10
23568;DHT22;11962;50.838;4.430;2024-03-06T11:40:23;19.30;67.10
23568;DHT22;11962;50.838;4.430;2024-03-06T11:42:49;19.60;66.50
23568;DHT22;11962;50.838;4.430;2024-03-06T11:45:19;20.90;64.70
23568;DHT22;11962;50.838;4.430;2024-03-06T11:48:00;22.90;60.00
23568;DHT22;11962;50.838;4.430;2024-03-06T11:50:27;23.60;57.60
23568;DHT22;11962;50.838;4.430;2024-03-06T11:52:54;22.90;57.40
23568;DHT22;11962;50.838;4.430;2024-03-06T11:55:23;22.40;58.20
23568;DHT22;11962;50.838;4.430;2024-03-06T11:57:51;21.80;58.90
23568;DHT22;11962;50.838;4.430;2024-03-06T12:00:23;21.40;59.80
23568;DHT22;11962;50.838;4.430;2024-03-06T12:02:50;20.90;61.00
23568;DHT22;11962;50.838;4.430;2024-03-06T12:05:17;20.60;62.00
23568;DHT22;11962;50.838;4.430;2024-03-06T12:07:50;20.40;62.90
23568;DHT22;11962;50.838;4.430;2024-03-06T12:10:19;20.30;63.30
23568;DHT22;11962;50.838;4.430;2024-03-06T12:16:08;20.00;63.80
23568;DHT22;11962;50.838;4.430;2024-03-06T12:18:34;20.20;63.70
23568;DHT22;11962;50.838;4.430;2024-03-06T12:21:02;20.10;63.40
23568;DHT22;11962;50.838;4.430;2024-03-06T12:23:30;20.10;64.20
23568;DHT22;11962;50.838;4.430;2024-03-06T12:26:06;20.20;63.90
23568;DHT22;11962;50.838;4.430;2024-03-06T12:28:37;20.30;63.60
23568;DHT22;11962;50.838;4.430;2024-03-06T12:31:04;20.30;63.10
23568;DHT22;11962;50.838;4.430;2024-03-06T12:33:30;20.10;63.60
23568;DHT22;11962;50.838;4.430;2024-03-06T12:36:06;20.10;64.60
23568;DHT22;11962;50.838;4.430;2024-03-06T12:38:33;19.90;63.90
23568;DHT22;11962;50.838;4.430;2024-03-06T12:40:59;19.90;64.40
23568;DHT22;11962;50.838;4.430;2024-03-06T12:43:26;19.80;64.40
23568;DHT22;11962;50.838;4.430;2024-03-06T12:48:29;19.90;65.30
23568;DHT22;11962;50.838;4.430;2024-03-06T12:50:55;20.00;65.10
23568;DHT22;11962;50.838;4.430;2024-03-06T12:53:21;20.00;65.10
23568;DHT22;11962;50.838;4.430;2024-03-06T12:55:47;19.80;65.00
23568;DHT22;11962;50.838;4.430;2024-03-06T12:58:14;19.60;65.80
23568;DHT22;11962;50.838;4.430;2024-03-06T13:00:40;19.50;66.10
23568;DHT22;11962;50.838;4.430;2024-03-06T13:03:06;19.30;66.60
23568;DHT22;11962;50.838;4.430;2024-03-06T13:05:32;19.10;66.70
23568;DHT22;11962;50.838;4.430;2024-03-06T13:07:58;18.90;67.10
23568;DHT22;11962;50.838;4.430;2024-03-06T13:10:25;18.60;67.50
23568;DHT22;11962;50.838;4.430;2024-03-06T13:12:51;18.40;67.80
23568;DHT22;11962;50.838;4.430;2024-03-06T13:15:16;18.30;69.30
23568;DHT22;11962;50.838;4.430;2024-03-06T13:17:42;18.10;68.40
23568;DHT22;11962;50.838;4.430;2024-03-06T13:20:08;18.00;68.80
23568;DHT22;11962;50.838;4.430;2024-03-06T13:22:37;18.00;69.10
23568;DHT22;11962;50.838;4.430;2024-03-06T13:25:03;17.90;69.50
23568;DHT22;11962;50.838;4.430;2024-03-06T13:27:30;17.80;69.40
23568;DHT22;11962;50.838;4.430;2024-03-06T13:29:56;17.70;69.70
23568;DHT22;11962;50.838;4.430;2024-03-06T13:32:22;17.60;70.00
23568;DHT22;11962;50.838;4.430;2024-03-06T13:34:48;17.50;70.00
23568;DHT22;11962;50.838;4.430;2024-03-06T13:37:14;17.50;70.10
23568;DHT22;11962;50.838;4.430;2024-03-06T13:39:40;17.40;70.30
23568;DHT22;11962;50.838;4.430;2024-03-06T13:42:06;17.30;70.50
23568;DHT22;11962;50.838;4.430;2024-03-06T13:44:36;17.30;70.80
23568;DHT22;11962;50.838;4.430;2024-03-06T13:47:02;17.30;70.70
23568;DHT22;11962;50.838;4.430;2024-03-06T13:49:39;17.40;70.70
23568;DHT22;11962;50.838;4.430;2024-03-06T13:52:07;17.40;70.70
23568;DHT22;11962;50.838;4.430;2024-03-06T13:54:34;17.40;71.00
23568;DHT22;11962;50.838;4.430;2024-03-06T13:57:00;17.40;71.00
23568;DHT22;11962;50.838;4.430;2024-03-06T13:59:31;17.30;70.30
23568;DHT22;11962;50.838;4.430;2024-03-06T14:01:57;17.30;70.30
23568;DHT22;11962;50.838;4.430;2024-03-06T14:04:24;17.30;70.60
23568;DHT22;11962;50.838;4.430;2024-03-06T14:06:50;17.20;70.80
23568;DHT22;11962;50.838;4.430;2024-03-06T14:09:16;17.10;70.90
23568;DHT22;11962;50.838;4.430;2024-03-06T14:11:42;17.20;70.90
23568;DHT22;11962;50.838;4.430;2024-03-06T14:14:08;17.20;70.60
23568;DHT22;11962;50.838;4.430;2024-03-06T14:16:34;17.20;70.40
23568;DHT22;11962;50.838;4.430;2024-03-06T14:19:00;17.20;70.50
23568;DHT22;11962;50.838;4.430;2024-03-06T14:21:26;17.10;70.00
23568;DHT22;11962;50.838;4.430;2024-03-06T14:23:52;17.10;70.30
23568;DHT22;11962;50.838;4.430;2024-03-06T14:26:18;17.10;70.50
23568;DHT22;11962;50.838;4.430;2024-03-06T14:28:43;17.10;70.30
23568;DHT22;11962;50.838;4.430;2024-03-06T14:31:09;17.00;70.30
23568;DHT22;11962;50.838;4.430;2024-03-06T14:33:42;16.80;70.30
23568;DHT22;11962;50.838;4.430;2024-03-06T14:36:08;16.80;71.00
23568;DHT22;11962;50.838;4.430;2024-03-06T14:38:33;16.70;71.30
23568;DHT22;11962;50.838;4.430;2024-03-06T14:40:59;16.70;71.50
23568;DHT22;11962;50.838;4.430;2024-03-06T14:43:25;16.70;71.70
23568;DHT22;11962;50.838;4.430;2024-03-06T14:45:51;16.60;71.30
23568;DHT22;11962;50.838;4.430;2024-03-06T14:48:17;16.40;71.60
23568;DHT22;11962;50.838;4.430;2024-03-06T14:50:43;16.40;71.70
23568;DHT22;11962;50.838;4.430;2024-03-06T14:53:09;16.40;71.80
23568;DHT22;11962;50.838;4.430;2024-03-06T14:55:35;16.40;72.10
23568;DHT22;11962;50.838;4.430;2024-03-06T14:58:00;16.40;73.00
23568;DHT22;11962;50.838;4.430;2024-03-06T15:00:26;16.40;72.80
23568;DHT22;11962;50.838;4.430;2024-03-06T15:02:52;16.30;73.40
23568;DHT22;11962;50.838;4.430;2024-03-06T15:05:18;16.20;73.80
23568;DHT22;11962;50.838;4.430;2024-03-06T15:07:43;16.10;74.00
23568;DHT22;11962;50.838;4.430;2024-03-06T15:10:09;16.10;74.50
23568;DHT22;11962;50.838;4.430;2024-03-06T15:12:35;16.00;74.50
23568;DHT22;11962;50.838;4.430;2024-03-06T15:15:04;15.80;74.30
23568;DHT22;11962;50.838;4.430;2024-03-06T15:17:32;15.80;74.60
23568;DHT22;11962;50.838;4.430;2024-03-06T15:19:58;15.70;74.80
23568;DHT22;11962;50.838;4.430;2024-03-06T15:22:25;15.60;74.90
23568;DHT22;11962;50.838;4.430;2024-03-06T15:24:51;15.60;74.80
23568;DHT22;11962;50.838;4.430;2024-03-06T15:27:17;15.50;74.70
23568;DHT22;11962;50.838;4.430;2024-03-06T15:29:42;15.50;74.80
23568;DHT22;11962;50.838;4.430;2024-03-06T15:32:09;15.60;74.60
23568;DHT22;11962;50.838;4.430;2024-03-06T15:34:36;15.50;74.60
23568;DHT22;11962;50.838;4.430;2024-03-06T15:37:02;15.50;74.80
23568;DHT22;11962;50.838;4.430;2024-03-06T15:39:28;15.40;74.50
23568;DHT22;11962;50.838;4.430;2024-03-06T15:41:54;15.50;74.60
23568;DHT22;11962;50.838;4.430;2024-03-06T15:44:22;15.50;74.80
23568;DHT22;11962;50.838;4.430;2024-03-06T15:46:49;15.30;74.80
23568;DHT22;11962;50.838;4.430;2024-03-06T15:49:22;15.30;75.20
23568;DHT22;11962;50.838;4.430;2024-03-06T15:51:51;15.20;75.20
23568;DHT22;11962;50.838;4.430;2024-03-06T15:54:19;15.20;75.50
23568;DHT22;11962;50.838;4.430;2024-03-06T15:56:45;15.10;75.40
23568;DHT22;11962;50.838;4.430;2024-03-06T15:59:11;15.00;75.60
23568;DHT22;11962;50.838;4.430;2024-03-06T16:01:36;15.00;76.00
23568;DHT22;11962;50.838;4.430;2024-03-06T16:04:02;14.90;75.20
23568;DHT22;11962;50.838;4.430;2024-03-06T16:06:28;14.80;75.20
23568;DHT22;11962;50.838;4.430;2024-03-06T16:08:56;14.70;75.40
23568;DHT22;11962;50.838;4.430;2024-03-06T16:11:22;14.70;75.50
23568;DHT22;11962;50.838;4.430;2024-03-06T16:13:48;14.60;75.80
23568;DHT22;11962;50.838;4.430;2024-03-06T16:16:14;14.50;75.80